createdAt,value
2023-02-27T00:01:24.597Z,103097.66
2023-02-27T00:03:54.814Z,103098.59
2023-02-27T00:06:23.701Z,103103.03
2023-02-27T00:08:55.926Z,103104.84
2023-02-27T00:11:22.373Z,103106.69
2023-02-27T00:13:52.172Z,103105.09
2023-02-27T00:16:21.487Z,103109.44
2023-02-27T00:18:50.386Z,103107.88
2023-02-27T00:21:16.979Z,103102.69
2023-02-27T00:23:46.193Z,103104.47
2023-02-27T00:26:13.947Z,103098.44
2023-02-27T00:28:40.581Z,103098.44
2023-02-27T00:31:10.206Z,103092.56
2023-02-27T00:36:21.024Z,103093.59
2023-02-27T00:38:47.473Z,103083.41
2023-02-27T00:41:14.239Z,103093.78
2023-02-27T00:43:40.640Z,103094.75
2023-02-27T00:46:10.282Z,103098.22
2023-02-27T00:48:39.776Z,103088.78
2023-02-27T00:51:13.484Z,103086.38
2023-02-27T00:53:42.666Z,103093.34
2023-02-27T00:56:09.068Z,103091.66
2023-02-27T00:58:46.809Z,103088.31
2023-02-27T01:03:55.659Z,103075.53
2023-02-27T01:06:28.241Z,103082.50
2023-02-27T01:09:03.332Z,103082.63
2023-02-27T01:11:33.321Z,103090.50
2023-02-27T01:14:07.396Z,103086.38
2023-02-27T01:16:33.788Z,103083.84
2023-02-27T01:19:00.218Z,103091.66
2023-02-27T01:21:34.843Z,103090.88
2023-02-27T01:24:01.336Z,103089.22
2023-02-27T01:29:14.603Z,103091.91
2023-02-27T01:31:43.852Z,103099.72
2023-02-27T01:34:10.523Z,103093.66
2023-02-27T01:36:40.220Z,103085.06
2023-02-27T01:39:06.772Z,103081.66
2023-02-27T01:41:33.296Z,103086.91
2023-02-27T01:44:03.748Z,103080.97
2023-02-27T01:46:31.851Z,103078.50
2023-02-27T01:49:06.332Z,103087.16
2023-02-27T01:51:48.815Z,103078.59
2023-02-27T01:54:29.446Z,103082.09
2023-02-27T01:56:59.006Z,103086.50
2023-02-27T01:59:33.078Z,103083.97
2023-02-27T02:02:01.317Z,103079.75
2023-02-27T02:04:33.634Z,103088.31
2023-02-27T02:07:12.765Z,103084.94
2023-02-27T02:09:58.104Z,103079.88
2023-02-27T02:12:34.078Z,103079.81
2023-02-27T02:15:00.967Z,103082.41
2023-02-27T02:17:42.831Z,103082.50
2023-02-27T02:20:15.168Z,103078.31
2023-02-27T02:23:16.905Z,103084.44
2023-02-27T02:26:20.365Z,103082.88
2023-02-27T02:29:25.806Z,103083.75
2023-02-27T02:32:18.118Z,103087.97
2023-02-27T02:35:19.814Z,103088.75
2023-02-27T02:38:19.582Z,103093.16
2023-02-27T02:41:10.970Z,103086.34
2023-02-27T02:44:02.938Z,103082.97
2023-02-27T02:46:52.411Z,103086.38
2023-02-27T02:49:26.392Z,103092.34
2023-02-27T02:52:13.071Z,103093.28
2023-02-27T02:54:54.656Z,103088.00
2023-02-27T02:57:35.168Z,103091.41
2023-02-27T03:00:20.766Z,103093.06
2023-02-27T03:02:58.478Z,103085.34
2023-02-27T03:05:39.151Z,103093.13
2023-02-27T03:08:11.602Z,103085.44
2023-02-27T03:10:48.447Z,103091.41
2023-02-27T03:13:24.837Z,103082.00
2023-02-27T03:16:02.239Z,103085.44
2023-02-27T03:19:02.730Z,103091.41
2023-02-27T03:21:39.317Z,103088.84
2023-02-27T03:24:09.717Z,103091.41
2023-02-27T03:26:51.018Z,103098.28
2023-02-27T03:29:28.971Z,103086.22
2023-02-27T03:32:10.780Z,103081.91
2023-02-27T03:34:44.219Z,103086.22
2023-02-27T03:37:16.673Z,103084.50
2023-02-27T03:40:17.251Z,103082.06
2023-02-27T03:42:57.174Z,103077.13
2023-02-27T03:45:37.594Z,103073.69
2023-02-27T03:48:07.048Z,103075.47
2023-02-27T03:50:35.779Z,103078.03
2023-02-27T03:53:06.995Z,103079.84
2023-02-27T03:55:45.987Z,103072.94
2023-02-27T03:58:17.481Z,103076.31
2023-02-27T04:00:47.236Z,103077.22
2023-02-27T04:03:13.761Z,103080.63
2023-02-27T04:05:43.432Z,103088.44
2023-02-27T04:08:54.946Z,103092.75
2023-02-27T04:11:54.702Z,103097.84
2023-02-27T04:14:43.144Z,103096.97
2023-02-27T04:17:26.663Z,103102.19
2023-02-27T04:20:17.178Z,103110.81
2023-02-27T04:25:55.351Z,103118.47
2023-02-27T04:28:29.091Z,103112.44
2023-02-27T04:31:08.543Z,103115.88
2023-02-27T04:34:08.998Z,103119.34
2023-02-27T04:36:56.829Z,103124.53
2023-02-27T04:58:40.126Z,103136.63
2023-02-27T05:01:35.526Z,103127.25
2023-02-27T05:04:04.145Z,103130.81
2023-02-27T05:06:37.534Z,103122.28
2023-02-27T05:09:28.613Z,103136.81
2023-02-27T05:12:07.261Z,103134.34
2023-02-27T05:15:00.747Z,103129.25
2023-02-27T05:18:10.354Z,103134.50
2023-02-27T05:21:14.881Z,103141.38
2023-02-27T05:24:18.908Z,103143.16
2023-02-27T05:27:49.627Z,103145.81
2023-02-27T05:30:31.921Z,103144.13
2023-02-27T05:33:18.141Z,103145.84
2023-02-27T05:36:31.390Z,103145.91
2023-02-27T05:39:07.347Z,103145.13
2023-02-27T05:41:45.321Z,103146.81
2023-02-27T05:44:19.298Z,103146.81
2023-02-27T05:47:12.896Z,103147.78
2023-02-27T05:49:53.378Z,103149.50
2023-02-27T05:52:24.305Z,103142.63
2023-02-27T05:58:15.623Z,103158.91
2023-02-27T06:00:59.044Z,103158.94
2023-02-27T06:03:28.298Z,103154.66
2023-02-27T06:05:59.865Z,103158.09
2023-02-27T06:11:12.283Z,103164.06
2023-02-27T06:13:42.397Z,103168.41
2023-02-27T06:18:56.793Z,103190.72
2023-02-27T06:21:26.377Z,103190.72
2023-02-27T06:23:52.776Z,103199.31
2023-02-27T06:26:20.217Z,103204.47
2023-02-27T06:28:54.021Z,103199.34
2023-02-27T06:31:23.390Z,103201.06
2023-02-27T06:33:57.185Z,103206.19
2023-02-27T06:36:29.538Z,103211.22
2023-02-27T06:38:59.239Z,103216.34
2023-02-27T06:41:26.022Z,103223.19
2023-02-27T06:43:59.778Z,103218.00
2023-02-27T06:46:26.603Z,103218.78
2023-02-27T06:48:57.286Z,103209.31
2023-02-27T06:51:23.701Z,103220.53
2023-02-27T06:53:50.339Z,103217.88
2023-02-27T06:56:25.217Z,103217.78
2023-02-27T06:58:51.636Z,103226.31
2023-02-27T07:07:36.418Z,103226.91
2023-02-27T07:09:38.329Z,103218.97
2023-02-27T07:12:09.028Z,103227.38
2023-02-27T07:14:38.427Z,103227.28
2023-02-27T07:17:05.870Z,103225.34
2023-02-27T07:19:39.423Z,103221.44
2023-02-27T07:22:05.762Z,103224.09
2023-02-27T07:24:45.548Z,103224.09
2023-02-27T07:27:12.268Z,103231.63
2023-02-27T07:29:43.641Z,103236.66
2023-02-27T07:32:11.270Z,103234.75
2023-02-27T07:34:41.936Z,103231.97
2023-02-27T07:37:11.620Z,103228.28
2023-02-27T07:39:38.910Z,103227.25
2023-02-27T07:42:05.968Z,103223.69
2023-02-27T07:44:35.623Z,103230.28
2023-02-27T07:52:27.292Z,103226.28
2023-02-27T07:54:53.914Z,103225.88
2023-02-27T07:57:23.145Z,103230.78
2023-02-27T07:59:50.272Z,103234.09
2023-02-27T08:02:18.503Z,103233.97
2023-02-27T08:04:44.931Z,103236.47
2023-02-27T08:07:11.394Z,103238.78
2023-02-27T08:09:38.789Z,103231.41
2023-02-27T08:12:07.719Z,103243.53
2023-02-27T08:14:34.262Z,103244.25
2023-02-27T08:17:05.432Z,103248.28
2023-02-27T08:19:35.056Z,103248.03
2023-02-27T08:22:01.691Z,103247.88
2023-02-27T08:24:28.573Z,103245.09
2023-02-27T08:26:57.838Z,103256.97
2023-02-27T08:29:24.271Z,103250.63
2023-02-27T08:32:00.201Z,103256.38
2023-02-27T08:34:26.687Z,103254.44
2023-02-27T08:36:58.745Z,103254.25
2023-02-27T08:39:25.172Z,103261.03
2023-02-27T08:41:52.751Z,103266.13
2023-02-27T08:44:28.506Z,103269.53
2023-02-27T08:46:54.849Z,103271.09
2023-02-27T08:49:25.741Z,103271.16
2023-02-27T08:51:52.835Z,103279.72
2023-02-27T08:54:26.813Z,103282.81
2023-02-27T08:56:56.289Z,103274.19
2023-02-27T08:59:24.796Z,103275.41
2023-02-27T09:01:57.567Z,103279.94
2023-02-27T09:04:24.062Z,103276.22
2023-02-27T09:07:00.728Z,103281.94
2023-02-27T09:09:27.499Z,103275.88
2023-02-27T09:12:11.261Z,103282.09
2023-02-27T09:14:38.557Z,103284.38
2023-02-27T09:17:07.698Z,103276.09
2023-02-27T09:19:34.230Z,103285.13
2023-02-27T09:22:04.021Z,103275.69
2023-02-27T09:24:30.371Z,103278.03
2023-02-27T09:26:56.785Z,103282.63
2023-02-27T09:29:26.817Z,103282.44
2023-02-27T09:31:56.305Z,103278.75
2023-02-27T09:34:25.413Z,103289.22
2023-02-27T09:36:52.145Z,103282.47
2023-02-27T09:39:18.651Z,103283.94
2023-02-27T09:42:00.381Z,103285.94
2023-02-27T09:44:45.608Z,103284.41
2023-02-27T09:47:33.178Z,103280.88
2023-02-27T09:50:04.582Z,103275.34
2023-02-27T09:52:36.264Z,103287.53
2023-02-27T09:55:13.060Z,103289.13
2023-02-27T09:58:21.128Z,103281.78
2023-02-27T10:01:14.350Z,103284.19
2023-02-27T10:04:12.054Z,103297.31
2023-02-27T10:07:12.249Z,103277.88
2023-02-27T10:10:00.080Z,103284.84
2023-02-27T10:12:38.588Z,103288.63
2023-02-27T10:15:33.249Z,103275.53
2023-02-27T10:18:25.520Z,103276.69
2023-02-27T10:21:14.024Z,103258.94
2023-02-27T10:24:18.775Z,103267.63
2023-02-27T10:26:46.011Z,103275.53
2023-02-27T10:29:21.242Z,103278.78
2023-02-27T10:31:54.297Z,103273.59
2023-02-27T10:34:22.886Z,103272.56
2023-02-27T10:36:52.649Z,103272.34
2023-02-27T10:39:23.086Z,103269.63
2023-02-27T10:41:54.288Z,103279.81
2023-02-27T10:44:23.013Z,103267.19
2023-02-27T10:46:54.752Z,103273.41
2023-02-27T10:49:22.146Z,103272.06
2023-02-27T10:52:04.334Z,103267.94
2023-02-27T10:54:33.910Z,103258.44
2023-02-27T10:57:07.446Z,103259.50
2023-02-27T10:59:57.953Z,103259.50
2023-02-27T11:02:40.461Z,103269.00
2023-02-27T11:05:35.170Z,103254.28
2023-02-27T11:08:32.197Z,103259.34
2023-02-27T11:11:09.764Z,103245.19
2023-02-27T11:13:41.021Z,103244.00
2023-02-27T11:16:22.883Z,103245.66
2023-02-27T11:18:57.214Z,103240.44
2023-02-27T11:21:59.433Z,103239.09
2023-02-27T11:24:31.352Z,103228.69
2023-02-27T11:27:13.877Z,103228.53
2023-02-27T11:30:04.567Z,103223.69
2023-02-27T11:32:45.791Z,103220.25
2023-02-27T11:35:23.035Z,103216.19
2023-02-27T11:37:57.176Z,103214.56
2023-02-27T11:40:51.037Z,103189.06
2023-02-27T11:43:48.115Z,103197.28
2023-02-27T11:46:45.985Z,103206.69
2023-02-27T11:49:57.593Z,103202.91
2023-02-27T11:52:41.858Z,103202.75
2023-02-27T11:55:18.101Z,103197.63
2023-02-27T11:57:54.971Z,103205.50
2023-02-27T12:00:43.054Z,103196.59
2023-02-27T12:03:33.044Z,103194.63
2023-02-27T12:06:23.960Z,103192.41
2023-02-27T12:09:16.940Z,103195.09
2023-02-27T12:11:46.643Z,103187.66
2023-02-27T12:14:48.559Z,103180.03
2023-02-27T12:17:25.331Z,103184.66
2023-02-27T12:20:11.783Z,103181.91
2023-02-27T12:22:53.170Z,103184.28
2023-02-27T12:25:36.182Z,103187.69
2023-02-27T12:28:17.478Z,103176.13
2023-02-27T12:31:21.614Z,103170.56
2023-02-27T12:34:31.623Z,103171.97
2023-02-27T12:37:03.652Z,103170.09
2023-02-27T12:39:41.963Z,103169.53
2023-02-27T12:42:35.262Z,103162.38
2023-02-27T12:45:46.307Z,103162.38
2023-02-27T12:48:38.869Z,103168.03
2023-02-27T12:51:30.492Z,103161.94
2023-02-27T12:54:28.296Z,103171.91
2023-02-27T12:57:04.098Z,103167.28
2023-02-27T12:59:54.941Z,103163.53
2023-02-27T13:02:33.165Z,103173.22
2023-02-27T13:05:13.910Z,103164.91
2023-02-27T13:08:17.600Z,103175.78
2023-02-27T13:10:51.301Z,103166.75
2023-02-27T13:13:39.309Z,103155.06
2023-02-27T13:16:43.360Z,103161.09
2023-02-27T13:19:33.368Z,103162.66
2023-02-27T13:22:25.836Z,103169.59
2023-02-27T13:24:59.561Z,103148.13
2023-02-27T13:27:38.737Z,103156.47
2023-02-27T13:30:08.659Z,103161.25
2023-02-27T13:32:53.245Z,103155.03
2023-02-27T13:35:36.736Z,103146.28
2023-02-27T13:38:26.624Z,103153.75
2023-02-27T13:40:56.301Z,103150.94
2023-02-27T13:43:51.330Z,103149.28
2023-02-27T13:46:22.561Z,103151.19
2023-02-27T13:49:27.002Z,103152.44
2023-02-27T13:52:02.443Z,103151.78
2023-02-27T13:54:34.308Z,103142.56
2023-02-27T13:57:26.587Z,103136.72
2023-02-27T14:00:29.924Z,103144.53
2023-02-27T14:03:20.759Z,103136.88
2023-02-27T14:05:52.939Z,103144.72
2023-02-27T14:08:51.219Z,103140.63
2023-02-27T14:11:52.404Z,103131.88
2023-02-27T14:14:56.177Z,103137.69
2023-02-27T14:17:37.880Z,103140.03
2023-02-27T14:20:28.123Z,103133.75
2023-02-27T14:23:27.611Z,103136.69
2023-02-27T14:26:00.947Z,103146.13
2023-02-27T14:28:46.177Z,103133.41
2023-02-27T14:31:38.840Z,103134.97
2023-02-27T14:34:06.218Z,103133.44
2023-02-27T14:36:40.163Z,103148.47
2023-02-27T14:39:30.595Z,103142.41
2023-02-27T14:42:39.800Z,103130.19
2023-02-27T14:45:14.171Z,103144.13
2023-02-27T14:47:42.485Z,103140.47
2023-02-27T14:50:36.620Z,103139.41
2023-02-27T14:53:29.985Z,103127.78
2023-02-27T14:56:00.356Z,103130.16
2023-02-27T14:58:28.678Z,103124.97
2023-02-27T15:01:14.964Z,103140.00
2023-02-27T15:03:53.222Z,103136.72
2023-02-27T15:06:23.126Z,103126.97
2023-02-27T15:08:55.801Z,103128.59
2023-02-27T15:11:27.160Z,103127.06
2023-02-27T15:14:23.086Z,103133.41
2023-02-27T15:16:55.853Z,103135.34
2023-02-27T15:19:32.021Z,103137.50
2023-02-27T15:24:50.593Z,103144.66
2023-02-27T15:27:25.441Z,103131.34
2023-02-27T15:30:00.937Z,103137.31
2023-02-27T15:32:42.524Z,103144.03
2023-02-27T15:35:20.886Z,103148.63
2023-02-27T15:38:02.669Z,103153.22
2023-02-27T15:45:58.423Z,103153.06
2023-02-27T15:48:29.469Z,103157.91
2023-02-27T15:51:03.552Z,103149.03
2023-02-27T15:53:33.830Z,103152.78
2023-02-27T15:56:11.791Z,103158.91
2023-02-27T15:58:48.912Z,103155.28
2023-02-27T16:01:24.948Z,103159.47
2023-02-27T16:04:00.564Z,103160.59
2023-02-27T16:06:38.628Z,103146.78
2023-02-27T16:09:19.137Z,103145.41
2023-02-27T16:11:45.523Z,103146.34
2023-02-27T16:14:44.312Z,103147.25
2023-02-27T16:17:27.740Z,103150.47
2023-02-27T16:20:01.841Z,103145.41
2023-02-27T16:22:30.441Z,103153.63
2023-02-27T16:25:10.635Z,103147.28
2023-02-27T16:27:41.526Z,103146.81
2023-02-27T16:30:16.489Z,103154.91
2023-02-27T16:32:46.479Z,103161.13
2023-02-27T16:35:16.547Z,103152.53
2023-02-27T16:37:59.324Z,103170.84
2023-02-27T16:40:30.078Z,103163.19
2023-02-27T16:43:01.298Z,103165.00
2023-02-27T16:45:31.364Z,103154.81
2023-02-27T16:48:02.938Z,103158.50
2023-02-27T16:50:33.485Z,103158.63
2023-02-27T16:53:02.945Z,103158.81
2023-02-27T16:55:32.504Z,103160.81
2023-02-27T16:58:02.622Z,103162.66
2023-02-27T17:00:29.126Z,103158.44
2023-02-27T17:02:55.526Z,103168.22
2023-02-27T17:05:31.955Z,103166.56
2023-02-27T17:07:58.505Z,103159.91
2023-02-27T17:10:28.856Z,103166.19
2023-02-27T17:12:55.236Z,103170.66
2023-02-27T17:15:21.965Z,103176.97
2023-02-27T17:17:51.309Z,103173.69
2023-02-27T17:20:21.548Z,103172.97
2023-02-27T17:22:50.647Z,103176.63
2023-02-27T17:25:23.523Z,103186.34
2023-02-27T17:27:50.149Z,103182.94
2023-02-27T17:30:26.289Z,103187.44
2023-02-27T17:32:52.665Z,103186.66
2023-02-27T17:35:22.752Z,103191.91
2023-02-27T17:37:51.866Z,103178.34
2023-02-27T17:42:59.532Z,103193.44
2023-02-27T17:45:36.205Z,103199.59
2023-02-27T17:48:02.596Z,103199.66
2023-02-27T17:50:32.393Z,103201.59
2023-02-27T17:52:58.803Z,103207.81
2023-02-27T17:55:25.180Z,103211.44
2023-02-27T17:58:04.818Z,103213.19
2023-02-27T18:00:46.994Z,103206.53
2023-02-27T18:03:18.999Z,103208.38
2023-02-27T18:05:51.389Z,103210.31
2023-02-27T18:08:26.215Z,103208.72
2023-02-27T18:10:53.181Z,103206.28
2023-02-27T18:13:33.406Z,103210.84
2023-02-27T18:16:01.962Z,103211.72
2023-02-27T18:18:28.745Z,103210.31
2023-02-27T18:21:08.772Z,103205.22
2023-02-27T18:23:38.637Z,103212.16
2023-02-27T18:26:30.545Z,103213.28
2023-02-27T18:29:04.144Z,103216.00
2023-02-27T18:31:34.452Z,103220.53
2023-02-27T18:34:04.043Z,103214.59
2023-02-27T18:36:38.643Z,103223.38
2023-02-27T18:39:06.614Z,103219.19
2023-02-27T18:41:33.632Z,103221.91
2023-02-27T18:44:03.041Z,103221.16
2023-02-27T18:46:29.900Z,103230.72
2023-02-27T18:49:04.328Z,103233.44
2023-02-27T18:51:33.502Z,103244.72
2023-02-27T18:54:01.581Z,103243.97
2023-02-27T18:56:30.404Z,103252.69
2023-02-27T19:02:03.625Z,103241.56
2023-02-27T19:04:34.805Z,103244.28
2023-02-27T19:07:01.174Z,103243.50
2023-02-27T19:09:33.474Z,103251.34
2023-02-27T19:12:02.399Z,103251.34
2023-02-27T19:14:29.239Z,103248.69
2023-02-27T19:17:00.476Z,103252.84
2023-02-27T19:19:29.980Z,103252.84
2023-02-27T19:21:58.510Z,103247.56
2023-02-27T19:24:30.764Z,103248.41
2023-02-27T19:26:57.166Z,103250.94
2023-02-27T19:29:29.997Z,103252.75
2023-02-27T19:32:02.048Z,103257.03
2023-02-27T19:34:30.804Z,103253.53
2023-02-27T19:37:00.312Z,103251.88
2023-02-27T19:39:32.822Z,103251.94
2023-02-27T19:42:02.058Z,103262.38
2023-02-27T19:44:28.434Z,103251.28
2023-02-27T19:46:57.232Z,103261.69
2023-02-27T19:49:26.864Z,103259.28
2023-02-27T19:51:55.408Z,103255.94
2023-02-27T19:54:27.447Z,103258.75
2023-02-27T19:56:54.269Z,103274.44
2023-02-27T19:59:27.006Z,103272.78
2023-02-27T20:01:53.448Z,103272.94
2023-02-27T20:04:19.904Z,103274.81
2023-02-27T20:06:50.470Z,103277.50
2023-02-27T20:09:20.477Z,103280.16
2023-02-27T20:11:58.568Z,103277.78
2023-02-27T20:14:25.749Z,103274.44
2023-02-27T20:16:53.403Z,103280.50
2023-02-27T20:19:24.159Z,103275.25
2023-02-27T20:21:52.058Z,103282.13
2023-02-27T20:24:24.748Z,103286.38
2023-02-27T20:26:53.617Z,103281.19
2023-02-27T20:29:22.838Z,103286.47
2023-02-27T20:31:53.958Z,103273.63
2023-02-27T20:34:25.954Z,103272.13
2023-02-27T20:36:56.151Z,103273.16
2023-02-27T20:42:11.285Z,103274.19
2023-02-27T20:44:38.055Z,103270.84
2023-02-27T20:47:04.476Z,103276.09
2023-02-27T20:49:31.579Z,103281.50
2023-02-27T20:52:02.044Z,103272.13
2023-02-27T20:54:28.397Z,103275.72
2023-02-27T20:56:58.098Z,103277.53
2023-02-27T20:59:27.264Z,103280.22
2023-02-27T21:04:43.927Z,103287.31
2023-02-27T21:07:12.734Z,103276.22
2023-02-27T21:09:42.091Z,103278.97
2023-02-27T21:12:11.762Z,103276.38
2023-02-27T21:14:38.161Z,103278.19
2023-02-27T21:17:08.247Z,103275.59
2023-02-27T21:19:39.827Z,103273.16
2023-02-27T21:24:53.923Z,103275.78
2023-02-27T21:27:23.561Z,103274.97
2023-02-27T21:29:50.824Z,103279.44
2023-02-27T21:32:18.705Z,103285.53
2023-02-27T21:34:48.319Z,103285.66
2023-02-27T21:40:04.696Z,103286.75
2023-02-27T21:42:31.517Z,103285.03
2023-02-27T21:44:58.037Z,103286.84
2023-02-27T21:47:28.917Z,103284.31
2023-02-27T21:49:55.658Z,103292.19
2023-02-27T21:52:22.202Z,103295.69
2023-02-27T21:54:51.835Z,103298.28
2023-02-27T21:57:21.609Z,103298.28
2023-02-27T21:59:59.681Z,103294.94
2023-02-27T22:02:26.049Z,103296.78
2023-02-27T22:04:57.754Z,103303.78
2023-02-27T22:07:27.039Z,103302.94
2023-02-27T22:09:53.498Z,103301.34
2023-02-27T22:12:28.166Z,103303.16
2023-02-27T22:14:54.739Z,103298.03
2023-02-27T22:17:21.769Z,103298.09
2023-02-27T22:19:55.303Z,103299.91
2023-02-27T22:22:24.192Z,103287.91
2023-02-27T22:24:50.614Z,103295.72
2023-02-27T22:27:17.067Z,103291.34
2023-02-27T22:29:43.506Z,103295.69
2023-02-27T22:32:14.837Z,103298.28
2023-02-27T22:34:41.260Z,103288.75
2023-02-27T22:37:07.650Z,103295.69
2023-02-27T22:39:37.945Z,103293.97
2023-02-27T22:42:07.567Z,103295.59
2023-02-27T22:44:34.372Z,103311.03
2023-02-27T22:47:01.010Z,103310.19
2023-02-27T22:49:30.379Z,103312.78
2023-02-27T22:51:57.029Z,103306.72
2023-02-27T22:54:23.768Z,103311.84
2023-02-27T22:56:57.656Z,103307.63
2023-02-27T22:59:29.544Z,103305.00
2023-02-27T23:01:59.066Z,103296.41
2023-02-27T23:04:25.578Z,103303.31
2023-02-27T23:06:54.560Z,103298.09
2023-02-27T23:09:27.167Z,103298.91
2023-02-27T23:11:56.544Z,103308.41
2023-02-27T23:14:25.848Z,103308.50
2023-02-27T23:16:52.256Z,103311.94
2023-02-27T23:19:22.619Z,103307.53
2023-02-27T23:21:49.448Z,103310.19
2023-02-27T23:24:19.434Z,103315.31
2023-02-27T23:26:52.185Z,103319.72
2023-02-27T23:29:19.426Z,103318.84
2023-02-27T23:31:57.756Z,103312.72
2023-02-27T23:37:09.259Z,103317.75
2023-02-27T23:39:38.628Z,103309.13
2023-02-27T23:42:05.023Z,103323.75
2023-02-27T23:44:36.058Z,103324.69
2023-02-27T23:47:05.482Z,103334.25
2023-02-27T23:49:39.552Z,103323.06
2023-02-27T23:52:06.049Z,103314.28
2023-02-27T23:54:32.500Z,103324.56
2023-02-27T23:57:12.368Z,103318.53
2023-02-27T23:59:41.801Z,103315.84
